createdAt,value
2018-09-17T00:01:11.134Z,4.00
2018-09-17T00:03:40.549Z,4.30
2018-09-17T00:06:10.327Z,4.00
2018-09-17T00:08:39.775Z,3.70
2018-09-17T00:11:09.450Z,3.73
2018-09-17T00:13:38.962Z,4.10
2018-09-17T00:16:08.563Z,5.83
2018-09-17T00:18:37.967Z,4.50
2018-09-17T00:21:07.532Z,4.40
2018-09-17T00:23:37.622Z,6.40
2018-09-17T00:26:07.561Z,4.47
2018-09-17T00:28:36.827Z,4.73
2018-09-17T00:31:06.147Z,4.67
2018-09-17T00:33:35.852Z,5.00
2018-09-17T00:36:05.918Z,4.50
2018-09-17T00:38:35.473Z,4.80
2018-09-17T00:41:05.097Z,4.97
2018-09-17T00:43:34.791Z,4.77
2018-09-17T00:46:04.166Z,4.33
2018-09-17T00:48:33.932Z,4.70
2018-09-17T00:51:03.856Z,4.30
2018-09-17T00:53:33.863Z,4.70
2018-09-17T00:56:03.553Z,4.10
2018-09-17T00:58:33.383Z,4.67
2018-09-17T01:01:02.872Z,4.43
2018-09-17T01:03:32.638Z,4.30
2018-09-17T01:06:02.081Z,4.73
2018-09-17T01:08:31.794Z,4.33
2018-09-17T01:11:01.263Z,4.67
2018-09-17T01:13:30.801Z,4.80
2018-09-17T01:16:00.710Z,4.37
2018-09-17T01:18:30.198Z,4.37
2018-09-17T01:21:00.194Z,4.77
2018-09-17T01:23:29.660Z,4.40
2018-09-17T01:25:59.187Z,4.57
2018-09-17T01:28:28.789Z,4.77
2018-09-17T01:30:58.986Z,4.67
2018-09-17T01:33:28.883Z,4.77
2018-09-17T01:35:58.615Z,4.50
2018-09-17T01:38:28.354Z,5.00
2018-09-17T01:40:57.973Z,4.37
2018-09-17T01:43:27.738Z,4.97
2018-09-17T01:45:57.378Z,4.60
2018-09-17T01:48:26.721Z,4.77
2018-09-17T01:50:56.633Z,5.10
2018-09-17T01:53:26.128Z,5.73
2018-09-17T01:55:56.034Z,5.27
2018-09-17T01:58:25.605Z,5.03
2018-09-17T02:00:56.553Z,4.97
2018-09-17T02:03:26.002Z,4.80
2018-09-17T02:05:55.686Z,5.20
2018-09-17T02:08:25.036Z,5.17
2018-09-17T02:10:54.531Z,4.67
2018-09-17T02:13:23.846Z,4.63
2018-09-17T02:15:53.750Z,5.00
2018-09-17T02:18:23.026Z,5.37
2018-09-17T02:20:52.559Z,4.57
2018-09-17T02:23:22.215Z,4.70
2018-09-17T02:25:51.763Z,4.90
2018-09-17T02:28:21.242Z,4.53
2018-09-17T02:30:51.073Z,5.17
2018-09-17T02:33:20.308Z,5.10
2018-09-17T02:35:49.781Z,5.17
2018-09-17T02:38:19.459Z,4.80
2018-09-17T02:40:49.050Z,5.13
2018-09-17T02:43:19.698Z,5.10
2018-09-17T02:45:49.275Z,5.50
2018-09-17T02:48:18.909Z,4.93
2018-09-17T02:50:48.698Z,5.20
2018-09-17T02:53:18.212Z,5.07
2018-09-17T02:55:48.279Z,5.07
2018-09-17T02:58:18.055Z,4.90
2018-09-17T03:00:47.539Z,5.43
2018-09-17T03:03:17.290Z,5.20
2018-09-17T03:05:47.146Z,5.40
2018-09-17T03:08:16.374Z,4.87
2018-09-17T03:10:46.806Z,4.93
2018-09-17T03:13:16.430Z,5.20
2018-09-17T03:15:54.114Z,5.33
2018-09-17T03:18:36.431Z,5.40
2018-09-17T03:21:06.932Z,4.93
2018-09-17T03:23:38.246Z,5.40
2018-09-17T03:26:07.730Z,5.10
2018-09-17T03:28:37.693Z,4.90
2018-09-17T03:31:07.367Z,5.20
2018-09-17T03:33:36.874Z,5.50
2018-09-17T03:36:06.729Z,5.70
2018-09-17T03:38:45.974Z,5.97
2018-09-17T03:41:16.649Z,6.43
2018-09-17T03:43:47.838Z,5.80
2018-09-17T03:46:17.310Z,5.90
2018-09-17T03:48:46.990Z,6.03
2018-09-17T03:51:17.477Z,5.93
2018-09-17T03:53:47.232Z,5.33
2018-09-17T03:56:16.707Z,5.70
2018-09-17T03:58:46.954Z,6.30
2018-09-17T04:01:16.322Z,6.63
2018-09-17T04:03:46.248Z,5.80
2018-09-17T04:06:16.387Z,6.30
2018-09-17T04:08:45.899Z,5.23
2018-09-17T04:11:15.799Z,5.53
2018-09-17T04:13:45.635Z,5.77
2018-09-17T04:16:15.003Z,5.73
2018-09-17T04:18:44.884Z,5.47
2018-09-17T04:21:14.467Z,5.60
2018-09-17T04:23:44.008Z,5.40
2018-09-17T04:26:13.802Z,5.80
2018-09-17T04:28:43.041Z,5.53
2018-09-17T04:31:12.480Z,5.47
2018-09-17T04:33:43.061Z,5.37
2018-09-17T04:36:13.367Z,5.60
2018-09-17T04:38:43.296Z,5.50
2018-09-17T04:41:12.515Z,5.83
2018-09-17T04:43:42.013Z,6.00
2018-09-17T04:46:11.604Z,5.90
2018-09-17T04:48:40.836Z,5.60
2018-09-17T04:51:10.378Z,5.40
2018-09-17T04:53:40.261Z,5.63
2018-09-17T04:56:09.808Z,5.83
2018-09-17T04:58:39.250Z,5.43
2018-09-17T05:01:09.058Z,5.50
2018-09-17T05:03:39.424Z,6.07
2018-09-17T05:06:09.079Z,5.70
2018-09-17T05:08:38.491Z,5.63
2018-09-17T05:11:08.048Z,5.80
2018-09-17T05:13:37.398Z,5.73
2018-09-17T05:16:07.244Z,6.00
2018-09-17T05:18:37.531Z,6.10
2018-09-17T05:21:07.303Z,5.60
2018-09-17T05:23:36.754Z,5.87
2018-09-17T05:26:07.345Z,5.93
2018-09-17T05:28:36.823Z,5.80
2018-09-17T05:31:06.431Z,6.37
2018-09-17T05:33:35.818Z,6.17
2018-09-17T05:36:05.926Z,6.27
2018-09-17T05:38:35.983Z,6.30
2018-09-17T05:41:05.255Z,6.60
2018-09-17T05:43:34.661Z,6.10
2018-09-17T05:46:04.925Z,5.87
2018-09-17T05:48:34.995Z,6.03
2018-09-17T05:51:04.407Z,5.97
2018-09-17T05:53:34.350Z,5.83
2018-09-17T05:56:04.741Z,6.13
2018-09-17T05:58:34.446Z,5.83
2018-09-17T06:01:04.282Z,6.60
2018-09-17T06:03:34.317Z,6.27
2018-09-17T06:06:04.220Z,6.20
2018-09-17T06:08:34.383Z,6.20
2018-09-17T06:11:03.817Z,6.33
2018-09-17T06:13:33.431Z,6.20
2018-09-17T06:16:03.187Z,6.73
2018-09-17T06:18:32.638Z,6.63
2018-09-17T06:21:03.191Z,6.30
2018-09-17T06:23:32.849Z,6.77
2018-09-17T06:26:03.518Z,6.20
2018-09-17T06:28:33.838Z,6.57
2018-09-17T06:31:03.051Z,6.13
2018-09-17T06:33:32.590Z,5.93
2018-09-17T06:36:02.091Z,6.13
2018-09-17T06:38:31.782Z,6.20
2018-09-17T06:41:01.554Z,6.20
2018-09-17T06:43:31.617Z,6.37
2018-09-17T06:46:01.338Z,6.60
2018-09-17T06:48:31.142Z,6.00
2018-09-17T06:51:00.614Z,6.17
2018-09-17T06:53:30.614Z,6.07
2018-09-17T06:56:00.327Z,6.67
2018-09-17T06:58:29.915Z,6.23
2018-09-17T07:00:59.994Z,6.27
2018-09-17T07:03:29.481Z,8.10
2018-09-17T07:05:59.582Z,6.33
2018-09-17T07:08:29.289Z,6.17
2018-09-17T07:10:58.802Z,6.90
2018-09-17T07:13:29.328Z,6.13
2018-09-17T07:15:58.559Z,6.70
2018-09-17T07:18:27.787Z,6.50
2018-09-17T07:20:57.318Z,6.00
2018-09-17T07:23:27.243Z,6.63
2018-09-17T07:25:56.510Z,6.13
2018-09-17T07:28:26.354Z,6.23
2018-09-17T07:30:56.078Z,6.73
2018-09-17T07:33:25.822Z,5.93
2018-09-17T07:35:55.291Z,6.07
2018-09-17T07:38:24.790Z,5.57
2018-09-17T07:40:54.653Z,5.90
2018-09-17T07:43:25.017Z,6.40
2018-09-17T07:45:54.872Z,5.90
2018-09-17T07:48:24.244Z,5.93
2018-09-17T07:50:53.937Z,5.50
2018-09-17T07:53:23.698Z,46.27
2018-09-17T07:55:53.714Z,73.50
2018-09-17T07:58:23.070Z,18.37
2018-09-17T08:00:52.731Z,7.07
2018-09-17T08:03:21.975Z,5.90
2018-09-17T08:05:51.784Z,5.40
2018-09-17T08:08:21.800Z,5.40
2018-09-17T08:10:51.010Z,5.17
2018-09-17T08:13:21.004Z,4.97
2018-09-17T08:15:50.503Z,5.10
2018-09-17T08:18:20.260Z,5.00
2018-09-17T08:20:49.694Z,5.00
2018-09-17T08:23:19.363Z,5.00
2018-09-17T08:25:49.084Z,4.80
2018-09-17T08:28:19.674Z,4.90
2018-09-17T08:30:49.301Z,4.67
2018-09-17T08:33:19.626Z,4.80
2018-09-17T08:35:49.318Z,4.83
2018-09-17T08:38:18.892Z,4.57
2018-09-17T08:40:48.739Z,4.60
2018-09-17T08:43:18.303Z,7.13
2018-09-17T08:45:48.056Z,20.50
2018-09-17T08:48:18.079Z,5.13
2018-09-17T08:50:48.091Z,7.10
2018-09-17T08:53:17.552Z,12.97
2018-09-17T08:55:51.150Z,4.60
2018-09-17T08:58:25.276Z,19.47
2018-09-17T09:01:07.608Z,5.60
2018-09-17T09:03:38.699Z,6.43
2018-09-17T09:06:13.405Z,5.00
2018-09-17T09:08:43.187Z,7.57
2018-09-17T09:11:20.414Z,5.37
2018-09-17T09:13:55.501Z,3.93
2018-09-17T09:16:25.722Z,4.57
2018-09-17T09:18:54.923Z,3.73
2018-09-17T09:21:24.231Z,4.70
2018-09-17T09:23:53.555Z,3.90
2018-09-17T09:26:23.060Z,4.00
2018-09-17T09:28:53.367Z,3.80
2018-09-17T09:31:22.703Z,4.23
2018-09-17T09:33:52.574Z,3.90
2018-09-17T09:36:21.893Z,3.90
2018-09-17T09:38:51.578Z,3.53
2018-09-17T09:41:21.139Z,3.40
2018-09-17T09:43:55.890Z,3.43
2018-09-17T09:46:25.710Z,3.63
2018-09-17T09:48:55.142Z,3.60
2018-09-17T09:51:24.654Z,3.53
2018-09-17T09:53:54.410Z,3.40
2018-09-17T09:56:24.515Z,11.93
2018-09-17T09:58:54.930Z,4.43
2018-09-17T10:01:27.527Z,3.90
2018-09-17T10:04:02.348Z,3.20
2018-09-17T10:06:31.735Z,3.30
2018-09-17T10:09:06.381Z,3.10
2018-09-17T10:11:41.175Z,3.27
2018-09-17T10:14:15.603Z,3.30
2018-09-17T10:16:50.367Z,3.37
2018-09-17T10:19:20.257Z,3.30
2018-09-17T10:21:49.605Z,3.17
2018-09-17T10:24:19.203Z,3.20
2018-09-17T10:26:48.880Z,2.97
2018-09-17T10:29:18.366Z,3.40
2018-09-17T10:31:47.887Z,3.10
2018-09-17T10:34:17.399Z,3.47
2018-09-17T10:36:47.490Z,3.10
2018-09-17T10:39:17.020Z,3.10
2018-09-17T10:41:46.492Z,3.80
2018-09-17T10:44:16.012Z,2.80
2018-09-17T10:46:45.507Z,2.70
2018-09-17T10:49:15.022Z,2.60
2018-09-17T10:51:44.310Z,2.73
2018-09-17T10:54:13.889Z,2.93
2018-09-17T10:56:43.316Z,2.83
2018-09-17T10:59:13.590Z,3.00
2018-09-17T11:01:43.216Z,2.47
2018-09-17T11:04:12.751Z,2.70
2018-09-17T11:06:42.151Z,2.97
2018-09-17T11:09:12.984Z,5.83
2018-09-17T11:11:42.419Z,3.00
2018-09-17T11:14:11.972Z,2.90
2018-09-17T11:16:41.429Z,2.90
2018-09-17T11:19:10.946Z,3.00
2018-09-17T11:21:40.423Z,2.70
2018-09-17T11:24:09.661Z,3.10
2018-09-17T11:26:39.016Z,3.00
2018-09-17T11:29:08.583Z,3.20
2018-09-17T11:31:38.165Z,2.70
2018-09-17T11:34:07.409Z,2.90
2018-09-17T11:36:36.862Z,2.90
2018-09-17T11:39:08.497Z,3.00
2018-09-17T11:41:37.731Z,2.87
2018-09-17T11:44:06.991Z,3.23
2018-09-17T11:46:36.646Z,3.07
2018-09-17T11:49:06.482Z,3.00
2018-09-17T11:51:36.783Z,2.80
2018-09-17T11:54:06.740Z,3.87
2018-09-17T11:56:36.177Z,2.83
2018-09-17T11:59:05.688Z,2.80
2018-09-17T12:01:41.206Z,2.73
2018-09-17T12:04:12.728Z,2.60
2018-09-17T12:06:47.470Z,2.63
2018-09-17T12:09:17.006Z,3.30
2018-09-17T12:11:46.286Z,2.80
2018-09-17T12:14:15.775Z,2.60
2018-09-17T12:16:45.514Z,2.80
2018-09-17T12:19:15.023Z,2.70
2018-09-17T12:21:44.526Z,3.07
2018-09-17T12:24:14.008Z,3.50
2018-09-17T12:26:43.539Z,3.00
2018-09-17T12:29:13.024Z,2.70
2018-09-17T12:31:42.594Z,4.67
2018-09-17T12:34:12.163Z,4.33
2018-09-17T12:36:41.570Z,3.30
2018-09-17T12:39:12.761Z,3.93
2018-09-17T12:41:42.393Z,2.80
2018-09-17T12:44:11.727Z,2.90
2018-09-17T12:46:41.259Z,2.80
2018-09-17T12:49:11.402Z,2.90
2018-09-17T12:51:40.828Z,2.87
2018-09-17T12:54:10.171Z,3.40
2018-09-17T12:56:39.691Z,2.80
2018-09-17T12:59:09.831Z,2.90
2018-09-17T13:01:39.259Z,3.30
2018-09-17T13:04:08.842Z,3.03
2018-09-17T13:06:38.427Z,3.30
2018-09-17T13:09:10.266Z,2.90
2018-09-17T13:11:40.166Z,3.23
2018-09-17T13:14:09.445Z,3.10
2018-09-17T13:16:40.223Z,3.37
2018-09-17T13:19:11.601Z,3.03
2018-09-17T13:21:41.051Z,3.00
2018-09-17T13:24:11.130Z,3.10
2018-09-17T13:26:40.339Z,3.00
2018-09-17T13:29:09.903Z,3.10
2018-09-17T13:31:39.264Z,3.40
2018-09-17T13:34:08.642Z,2.97
2018-09-17T13:36:37.874Z,2.70
2018-09-17T13:39:07.758Z,3.00
2018-09-17T13:41:37.285Z,2.80
2018-09-17T13:44:07.279Z,3.33
2018-09-17T13:46:36.716Z,2.57
2018-09-17T13:49:06.240Z,3.00
2018-09-17T13:51:35.715Z,3.07
2018-09-17T13:54:05.241Z,3.40
2018-09-17T13:56:34.750Z,3.13
2018-09-17T13:59:04.381Z,3.17
2018-09-17T14:01:34.387Z,4.77
2018-09-17T14:04:03.977Z,3.17
2018-09-17T14:06:33.332Z,2.83
2018-09-17T14:09:02.940Z,3.30
2018-09-17T14:11:32.186Z,3.30
2018-09-17T14:14:01.654Z,2.97
2018-09-17T14:16:35.120Z,2.83
2018-09-17T14:19:04.825Z,3.60
2018-09-17T14:21:35.093Z,3.10
2018-09-17T14:24:04.608Z,3.17
2018-09-17T14:26:34.128Z,3.30
2018-09-17T14:29:03.591Z,3.10
2018-09-17T14:31:38.015Z,3.10
2018-09-17T14:34:07.730Z,2.90
2018-09-17T14:36:37.504Z,3.10
2018-09-17T14:39:09.009Z,3.20
2018-09-17T14:41:38.798Z,2.80
2018-09-17T14:44:08.278Z,2.90
2018-09-17T14:46:38.334Z,3.77
2018-09-17T14:49:07.655Z,3.07
2018-09-17T14:51:37.171Z,3.10
2018-09-17T14:54:06.654Z,3.13
2018-09-17T14:56:36.150Z,2.97
2018-09-17T14:59:06.309Z,3.47
2018-09-17T15:01:35.879Z,3.33
2018-09-17T15:04:05.577Z,3.20
2018-09-17T15:06:35.006Z,3.20
2018-09-17T15:09:06.352Z,3.07
2018-09-17T15:11:35.868Z,3.03
2018-09-17T15:14:05.502Z,2.90
2018-09-17T15:16:35.089Z,3.07
2018-09-17T15:19:04.566Z,2.70
2018-09-17T15:21:34.266Z,2.60
2018-09-17T15:24:04.088Z,2.70
2018-09-17T15:26:33.185Z,3.00
2018-09-17T15:29:02.612Z,2.67
2018-09-17T15:31:32.323Z,2.70
2018-09-17T15:34:01.839Z,2.93
2018-09-17T15:36:31.538Z,2.60
2018-09-17T15:39:01.008Z,2.87
2018-09-17T15:41:30.724Z,2.73
2018-09-17T15:44:00.086Z,2.80
2018-09-17T15:46:29.730Z,2.70
2018-09-17T15:48:59.227Z,2.87
2018-09-17T15:51:29.574Z,2.40
2018-09-17T15:53:58.980Z,2.63
2018-09-17T15:56:28.357Z,2.80
2018-09-17T15:58:58.102Z,2.40
2018-09-17T16:01:28.026Z,2.73
2018-09-17T16:03:58.007Z,2.50
2018-09-17T16:06:27.414Z,2.20
2018-09-17T16:08:57.305Z,2.63
2018-09-17T16:11:26.839Z,2.70
2018-09-17T16:13:56.525Z,2.60
2018-09-17T16:16:25.747Z,2.80
2018-09-17T16:18:55.169Z,3.30
2018-09-17T16:21:24.498Z,2.43
2018-09-17T16:23:54.423Z,2.80
2018-09-17T16:26:24.337Z,2.63
2018-09-17T16:28:54.021Z,2.17
2018-09-17T16:31:23.611Z,2.37
2018-09-17T16:33:53.430Z,2.77
2018-09-17T16:36:23.343Z,2.50
2018-09-17T16:38:53.802Z,2.27
2018-09-17T16:41:23.754Z,2.17
2018-09-17T16:43:53.038Z,2.03
2018-09-17T16:46:23.105Z,2.50
2018-09-17T16:48:52.291Z,2.30
2018-09-17T16:51:22.008Z,2.40
2018-09-17T16:53:51.479Z,2.50
2018-09-17T16:56:20.727Z,2.57
2018-09-17T16:58:50.384Z,2.40
2018-09-17T17:01:19.597Z,2.40
2018-09-17T17:03:48.851Z,2.70
2018-09-17T17:06:18.893Z,3.40
2018-09-17T17:08:48.567Z,2.60
2018-09-17T17:11:18.053Z,2.53
2018-09-17T17:13:47.904Z,2.37
2018-09-17T17:16:17.804Z,2.10
2018-09-17T17:18:47.231Z,2.33
2018-09-17T17:21:16.863Z,2.60
2018-09-17T17:23:46.372Z,2.40
2018-09-17T17:26:15.919Z,2.60
2018-09-17T17:28:45.412Z,2.80
2018-09-17T17:31:15.727Z,2.53
2018-09-17T17:33:45.656Z,2.70
2018-09-17T17:36:15.242Z,2.20
2018-09-17T17:38:44.652Z,2.90
2018-09-17T17:41:14.110Z,2.30
2018-09-17T17:43:43.509Z,2.70
2018-09-17T17:46:13.771Z,2.77
2018-09-17T17:48:43.113Z,2.60
2018-09-17T17:51:13.163Z,2.53
2018-09-17T17:53:42.598Z,2.47
2018-09-17T17:56:12.897Z,2.30
2018-09-17T17:58:42.348Z,2.90
2018-09-17T18:01:11.897Z,2.70
2018-09-17T18:03:41.056Z,2.97
2018-09-17T18:06:11.234Z,2.97
2018-09-17T18:08:40.751Z,3.00
2018-09-17T18:11:10.243Z,2.80
2018-09-17T18:13:39.757Z,3.23
2018-09-17T18:16:09.243Z,3.43
2018-09-17T18:18:38.801Z,3.60
2018-09-17T18:21:08.790Z,3.17
2018-09-17T18:23:37.963Z,3.43
2018-09-17T18:26:07.463Z,2.93
2018-09-17T18:28:36.984Z,2.60
2018-09-17T18:31:06.892Z,2.93
2018-09-17T18:33:36.203Z,2.77
2018-09-17T18:36:05.733Z,3.00
2018-09-17T18:38:35.667Z,16.20
2018-09-17T18:41:05.370Z,7.67
2018-09-17T18:43:35.251Z,14.90
2018-09-17T18:46:05.232Z,7.37
2018-09-17T18:48:34.972Z,12.80
2018-09-17T18:51:04.223Z,9.97
2018-09-17T18:53:34.038Z,16.47
2018-09-17T18:56:03.583Z,30.17
2018-09-17T18:58:33.075Z,18.50
2018-09-17T19:01:02.911Z,11.67
2018-09-17T19:03:32.826Z,6.13
2018-09-17T19:06:02.298Z,7.63
2018-09-17T19:08:31.710Z,7.07
2018-09-17T19:11:02.034Z,4.37
2018-09-17T19:13:31.535Z,3.63
2018-09-17T19:16:01.163Z,7.83
2018-09-17T19:18:30.551Z,7.40
2018-09-17T19:21:00.348Z,16.87
2018-09-17T19:23:34.992Z,10.50
2018-09-17T19:26:04.455Z,12.53
2018-09-17T19:28:39.053Z,6.87
2018-09-17T19:31:08.563Z,11.17
2018-09-17T19:33:38.241Z,6.50
2018-09-17T19:36:08.405Z,4.97
2018-09-17T19:38:43.101Z,3.50
2018-09-17T19:41:12.708Z,3.83
2018-09-17T19:43:48.589Z,6.50
2018-09-17T19:46:19.324Z,7.10
2018-09-17T19:48:49.523Z,8.17
2018-09-17T19:51:24.417Z,5.70
2018-09-17T19:53:54.164Z,4.27
2018-09-17T19:56:23.738Z,5.10
2018-09-17T19:58:58.328Z,3.90
2018-09-17T20:01:27.590Z,4.03
2018-09-17T20:04:02.248Z,3.37
2018-09-17T20:06:31.723Z,3.20
2018-09-17T20:09:01.014Z,3.50
2018-09-17T20:11:30.514Z,3.00
2018-09-17T20:14:00.032Z,5.70
2018-09-17T20:16:30.230Z,7.67
2018-09-17T20:18:59.495Z,9.53
2018-09-17T20:21:29.337Z,4.20
2018-09-17T20:23:59.036Z,4.33
2018-09-17T20:26:28.718Z,4.17
2018-09-17T20:28:58.337Z,3.33
2018-09-17T20:31:27.791Z,5.10
2018-09-17T20:33:57.135Z,5.10
2018-09-17T20:36:26.587Z,3.90
2018-09-17T20:38:56.106Z,3.80
2018-09-17T20:41:25.361Z,3.33
2018-09-17T20:43:54.670Z,3.97
2018-09-17T20:46:24.623Z,3.90
2018-09-17T20:48:54.159Z,3.63
2018-09-17T20:51:23.988Z,3.77
2018-09-17T20:53:53.539Z,3.70
2018-09-17T20:56:22.783Z,3.83
2018-09-17T20:58:52.114Z,3.93
2018-09-17T21:01:21.965Z,3.93
2018-09-17T21:03:51.330Z,3.80
2018-09-17T21:06:21.047Z,3.70
2018-09-17T21:08:51.028Z,3.67
2018-09-17T21:11:20.470Z,3.60
2018-09-17T21:13:49.656Z,37.47
2018-09-17T21:16:19.471Z,31.97
2018-09-17T21:18:49.810Z,26.03
2018-09-17T21:21:19.440Z,16.60
2018-09-17T21:23:49.016Z,8.20
2018-09-17T21:26:18.995Z,7.13
2018-09-17T21:28:48.676Z,5.90
2018-09-17T21:31:18.397Z,5.47
2018-09-17T21:33:48.593Z,5.67
2018-09-17T21:36:17.954Z,8.00
2018-09-17T21:38:48.157Z,10.97
2018-09-17T21:41:17.594Z,9.83
2018-09-17T21:43:47.882Z,7.23
2018-09-17T21:46:17.821Z,7.53
2018-09-17T21:48:47.197Z,4.77
2018-09-17T21:51:16.660Z,4.43
2018-09-17T21:53:46.142Z,4.47
2018-09-17T21:56:15.654Z,4.00
2018-09-17T21:58:45.630Z,4.00
2018-09-17T22:01:19.187Z,4.33
2018-09-17T22:03:50.029Z,3.70
2018-09-17T22:06:19.612Z,4.00
2018-09-17T22:08:49.123Z,18.30
2018-09-17T22:11:18.602Z,19.63
2018-09-17T22:13:48.139Z,18.60
2018-09-17T22:16:17.642Z,9.57
2018-09-17T22:18:47.718Z,11.37
2018-09-17T22:21:17.263Z,4.03
2018-09-17T22:23:46.755Z,3.60
2018-09-17T22:26:16.238Z,3.97
2018-09-17T22:28:45.766Z,3.73
2018-09-17T22:31:15.458Z,3.77
2018-09-17T22:33:44.787Z,3.70
2018-09-17T22:36:14.255Z,3.97
2018-09-17T22:38:43.576Z,3.60
2018-09-17T22:41:13.111Z,3.60
2018-09-17T22:43:42.794Z,4.13
2018-09-17T22:46:12.342Z,3.70
2018-09-17T22:48:41.790Z,3.53
2018-09-17T22:51:11.396Z,3.77
2018-09-17T22:53:40.819Z,3.70
2018-09-17T22:56:10.554Z,3.70
2018-09-17T22:58:40.514Z,4.00
2018-09-17T23:01:10.518Z,3.83
2018-09-17T23:03:39.672Z,4.20
2018-09-17T23:06:08.854Z,4.10
2018-09-17T23:08:39.078Z,3.80
2018-09-17T23:11:09.172Z,4.23
2018-09-17T23:13:39.305Z,4.00
2018-09-17T23:16:08.843Z,4.07
2018-09-17T23:18:38.301Z,4.20
2018-09-17T23:21:08.156Z,4.27
2018-09-17T23:23:38.064Z,4.13
2018-09-17T23:26:07.353Z,4.30
2018-09-17T23:28:36.758Z,4.33
2018-09-17T23:31:06.265Z,4.10
2018-09-17T23:33:35.923Z,4.30
2018-09-17T23:36:05.502Z,4.17
2018-09-17T23:38:35.051Z,4.00
2018-09-17T23:41:04.595Z,4.03
2018-09-17T23:43:34.044Z,4.23
2018-09-17T23:46:03.756Z,4.00
2018-09-17T23:48:33.464Z,4.07
2018-09-17T23:51:03.539Z,4.57
2018-09-17T23:53:33.374Z,4.03
2018-09-17T23:56:03.006Z,4.33
2018-09-17T23:58:32.480Z,4.47
